sensor_id;sensor_type;location;lat;lon;timestamp;P1;durP1;ratioP1;P2;durP2;ratioP2
61704;SDS011;47627;48.078;11.522;2023-04-25T02:02:50;3.97;;;2.47;;
61704;SDS011;47627;48.078;11.522;2023-04-25T02:05:24;4.90;;;2.80;;
61704;SDS011;47627;48.078;11.522;2023-04-25T02:07:50;3.97;;;2.28;;
61704;SDS011;47627;48.078;11.522;2023-04-25T02:10:15;3.42;;;2.80;;
61704;SDS011;47627;48.078;11.522;2023-04-25T02:12:59;4.53;;;2.35;;
61704;SDS011;47627;48.078;11.522;2023-04-25T04:08:51;2.22;;;2.03;;
61704;SDS011;47627;48.078;11.522;2023-04-25T04:11:16;3.67;;;2.13;;
61704;SDS011;47627;48.078;11.522;2023-04-25T04:19:05;4.47;;;2.25;;
61704;SDS011;47627;48.078;11.522;2023-04-25T04:21:31;5.20;;;2.80;;
61704;SDS011;47627;48.078;11.522;2023-04-25T04:29:19;4.43;;;2.63;;
61704;SDS011;47627;48.078;11.522;2023-04-25T04:32:02;5.95;;;2.60;;
61704;SDS011;47627;48.078;11.522;2023-04-25T04:37:10;4.28;;;2.90;;
61704;SDS011;47627;48.078;11.522;2023-04-25T04:39:39;5.25;;;3.28;;
61704;SDS011;47627;48.078;11.522;2023-04-25T04:42:12;5.53;;;3.00;;
61704;SDS011;47627;48.078;11.522;2023-04-25T10:52:38;3.63;;;1.50;;
61704;SDS011;47627;48.078;11.522;2023-04-25T11:40:57;3.78;;;2.53;;
61704;SDS011;47627;48.078;11.522;2023-04-25T11:43:23;5.55;;;2.90;;
61704;SDS011;47627;48.078;11.522;2023-04-25T11:45:49;3.22;;;2.40;;
61704;SDS011;47627;48.078;11.522;2023-04-25T11:48:15;4.00;;;2.53;;
61704;SDS011;47627;48.078;11.522;2023-04-25T11:50:41;2.97;;;2.50;;
61704;SDS011;47627;48.078;11.522;2023-04-25T11:53:06;3.83;;;2.53;;
61704;SDS011;47627;48.078;11.522;2023-04-25T13:02:26;3.83;;;1.52;;
61704;SDS011;47627;48.078;11.522;2023-04-25T13:15:39;1.38;;;0.70;;
61704;SDS011;47627;48.078;11.522;2023-04-25T13:18:04;1.30;;;1.20;;
61704;SDS011;47627;48.078;11.522;2023-04-25T13:20:30;0.80;;;0.70;;
61704;SDS011;47627;48.078;11.522;2023-04-25T13:22:55;1.77;;;0.90;;
61704;SDS011;47627;48.078;11.522;2023-04-25T14:24:37;1.42;;;1.00;;
61704;SDS011;47627;48.078;11.522;2023-04-25T14:27:03;3.83;;;1.70;;
61704;SDS011;47627;48.078;11.522;2023-04-25T14:29:29;4.78;;;2.60;;
61704;SDS011;47627;48.078;11.522;2023-04-25T14:31:54;2.65;;;1.50;;
61704;SDS011;47627;48.078;11.522;2023-04-25T14:58:37;1.25;;;1.00;;
61704;SDS011;47627;48.078;11.522;2023-04-25T15:01:03;1.77;;;0.82;;
61704;SDS011;47627;48.078;11.522;2023-04-25T15:03:29;9.65;;;5.32;;
61704;SDS011;47627;48.078;11.522;2023-04-25T15:05:54;17.85;;;9.13;;
61704;SDS011;47627;48.078;11.522;2023-04-25T15:08:19;19.13;;;9.00;;
61704;SDS011;47627;48.078;11.522;2023-04-25T15:10:45;7.30;;;3.88;;
61704;SDS011;47627;48.078;11.522;2023-04-25T15:50:58;2.22;;;2.03;;
61704;SDS011;47627;48.078;11.522;2023-04-25T15:53:23;2.15;;;1.95;;
61704;SDS011;47627;48.078;11.522;2023-04-25T15:55:49;3.80;;;3.35;;
61704;SDS011;47627;48.078;11.522;2023-04-25T15:58:14;2.90;;;2.60;;
61704;SDS011;47627;48.078;11.522;2023-04-25T16:00:39;2.30;;;2.10;;
61704;SDS011;47627;48.078;11.522;2023-04-25T16:03:04;1.95;;;1.52;;
61704;SDS011;47627;48.078;11.522;2023-04-25T16:18:59;1.83;;;1.70;;
61704;SDS011;47627;48.078;11.522;2023-04-25T16:21:24;1.80;;;1.70;;
61704;SDS011;47627;48.078;11.522;2023-04-25T16:23:51;1.70;;;1.60;;
61704;SDS011;47627;48.078;11.522;2023-04-25T16:26:16;1.80;;;1.70;;
61704;SDS011;47627;48.078;11.522;2023-04-25T16:28:41;1.73;;;1.63;;
61704;SDS011;47627;48.078;11.522;2023-04-25T16:31:06;3.53;;;1.60;;
61704;SDS011;47627;48.078;11.522;2023-04-25T16:33:32;3.13;;;1.95;;
61704;SDS011;47627;48.078;11.522;2023-04-25T16:35:58;4.38;;;2.10;;
61704;SDS011;47627;48.078;11.522;2023-04-25T16:38:23;1.73;;;1.63;;
61704;SDS011;47627;48.078;11.522;2023-04-25T16:40:48;2.28;;;1.90;;
61704;SDS011;47627;48.078;11.522;2023-04-25T16:43:13;2.40;;;2.20;;
61704;SDS011;47627;48.078;11.522;2023-04-25T16:45:41;2.50;;;2.22;;
61704;SDS011;47627;48.078;11.522;2023-04-25T16:48:06;2.58;;;2.10;;
61704;SDS011;47627;48.078;11.522;2023-04-25T16:50:32;2.95;;;2.22;;
61704;SDS011;47627;48.078;11.522;2023-04-25T16:52:57;4.22;;;2.50;;
61704;SDS011;47627;48.078;11.522;2023-04-25T16:55:22;2.17;;;1.92;;
61704;SDS011;47627;48.078;11.522;2023-04-25T16:57:47;3.33;;;2.60;;
61704;SDS011;47627;48.078;11.522;2023-04-25T17:00:13;3.45;;;2.03;;
61704;SDS011;47627;48.078;11.522;2023-04-25T17:02:38;4.25;;;2.50;;
61704;SDS011;47627;48.078;11.522;2023-04-25T17:05:03;3.45;;;2.70;;
61704;SDS011;47627;48.078;11.522;2023-04-25T17:07:29;2.67;;;2.47;;
61704;SDS011;47627;48.078;11.522;2023-04-25T17:09:55;2.95;;;2.63;;
61704;SDS011;47627;48.078;11.522;2023-04-25T17:12:20;4.45;;;2.63;;
61704;SDS011;47627;48.078;11.522;2023-04-25T17:20:09;3.22;;;2.58;;
61704;SDS011;47627;48.078;11.522;2023-04-25T17:22:34;3.80;;;3.30;;
61704;SDS011;47627;48.078;11.522;2023-04-25T17:25:01;6.47;;;3.50;;
61704;SDS011;47627;48.078;11.522;2023-04-25T17:27:26;3.40;;;3.10;;
61704;SDS011;47627;48.078;11.522;2023-04-25T17:29:52;3.63;;;3.08;;
61704;SDS011;47627;48.078;11.522;2023-04-25T17:32:17;4.97;;;3.35;;
61704;SDS011;47627;48.078;11.522;2023-04-25T17:34:42;5.18;;;3.03;;
61704;SDS011;47627;48.078;11.522;2023-04-25T17:37:10;3.50;;;3.20;;
61704;SDS011;47627;48.078;11.522;2023-04-25T17:39:39;3.50;;;3.17;;
61704;SDS011;47627;48.078;11.522;2023-04-25T17:42:04;6.45;;;4.47;;
61704;SDS011;47627;48.078;11.522;2023-04-25T17:44:30;5.05;;;4.20;;
61704;SDS011;47627;48.078;11.522;2023-04-25T17:46:56;7.65;;;4.35;;
61704;SDS011;47627;48.078;11.522;2023-04-25T17:49:21;5.00;;;3.90;;
61704;SDS011;47627;48.078;11.522;2023-04-25T17:51:46;4.43;;;4.03;;
61704;SDS011;47627;48.078;11.522;2023-04-25T17:54:11;5.68;;;3.70;;
61704;SDS011;47627;48.078;11.522;2023-04-25T17:56:37;4.57;;;3.80;;
61704;SDS011;47627;48.078;11.522;2023-04-25T17:59:03;6.25;;;4.30;;
61704;SDS011;47627;48.078;11.522;2023-04-25T18:01:28;4.57;;;3.70;;
61704;SDS011;47627;48.078;11.522;2023-04-25T18:03:54;4.32;;;3.50;;
61704;SDS011;47627;48.078;11.522;2023-04-25T18:06:19;9.70;;;5.75;;
61704;SDS011;47627;48.078;11.522;2023-04-25T18:08:45;8.60;;;6.20;;
61704;SDS011;47627;48.078;11.522;2023-04-25T18:11:10;7.93;;;5.60;;
61704;SDS011;47627;48.078;11.522;2023-04-25T18:13:36;8.13;;;7.10;;
61704;SDS011;47627;48.078;11.522;2023-04-25T18:16:02;5.43;;;4.43;;
61704;SDS011;47627;48.078;11.522;2023-04-25T18:18:28;5.28;;;4.05;;
61704;SDS011;47627;48.078;11.522;2023-04-25T18:20:57;4.15;;;3.75;;
61704;SDS011;47627;48.078;11.522;2023-04-25T18:23:23;6.85;;;3.75;;
61704;SDS011;47627;48.078;11.522;2023-04-25T18:25:48;5.03;;;4.00;;
61704;SDS011;47627;48.078;11.522;2023-04-25T18:28:16;4.78;;;4.22;;
61704;SDS011;47627;48.078;11.522;2023-04-25T18:30:41;4.82;;;4.35;;
61704;SDS011;47627;48.078;11.522;2023-04-25T18:33:08;4.88;;;3.67;;
61704;SDS011;47627;48.078;11.522;2023-04-25T18:35:33;5.75;;;3.92;;
61704;SDS011;47627;48.078;11.522;2023-04-25T18:37:58;4.10;;;3.70;;
61704;SDS011;47627;48.078;11.522;2023-04-25T18:40:24;4.93;;;3.05;;
61704;SDS011;47627;48.078;11.522;2023-04-25T18:42:49;3.88;;;3.08;;
61704;SDS011;47627;48.078;11.522;2023-04-25T18:45:14;3.88;;;3.30;;
61704;SDS011;47627;48.078;11.522;2023-04-25T18:47:40;4.65;;;3.03;;
61704;SDS011;47627;48.078;11.522;2023-04-25T18:50:05;7.45;;;3.10;;
61704;SDS011;47627;48.078;11.522;2023-04-25T18:52:32;4.35;;;3.05;;
61704;SDS011;47627;48.078;11.522;2023-04-25T18:54:57;5.82;;;3.40;;
61704;SDS011;47627;48.078;11.522;2023-04-25T18:57:22;5.97;;;4.03;;
61704;SDS011;47627;48.078;11.522;2023-04-25T18:59:48;6.65;;;3.75;;
61704;SDS011;47627;48.078;11.522;2023-04-25T19:02:13;4.95;;;3.90;;
61704;SDS011;47627;48.078;11.522;2023-04-25T19:04:40;5.00;;;3.78;;
61704;SDS011;47627;48.078;11.522;2023-04-25T19:07:05;5.43;;;3.67;;
61704;SDS011;47627;48.078;11.522;2023-04-25T19:09:30;4.45;;;4.05;;
61704;SDS011;47627;48.078;11.522;2023-04-25T19:11:55;6.15;;;3.42;;
61704;SDS011;47627;48.078;11.522;2023-04-25T19:14:21;5.13;;;4.38;;
61704;SDS011;47627;48.078;11.522;2023-04-25T19:16:46;5.50;;;3.97;;
61704;SDS011;47627;48.078;11.522;2023-04-25T19:19:12;6.50;;;5.07;;
61704;SDS011;47627;48.078;11.522;2023-04-25T19:21:37;5.32;;;4.75;;
61704;SDS011;47627;48.078;11.522;2023-04-25T19:24:03;5.15;;;4.57;;
61704;SDS011;47627;48.078;11.522;2023-04-25T19:26:29;5.35;;;4.15;;
61704;SDS011;47627;48.078;11.522;2023-04-25T19:29:04;5.45;;;4.20;;
61704;SDS011;47627;48.078;11.522;2023-04-25T19:31:30;4.75;;;4.32;;
61704;SDS011;47627;48.078;11.522;2023-04-25T19:33:55;7.30;;;4.38;;
61704;SDS011;47627;48.078;11.522;2023-04-25T19:36:21;5.03;;;3.80;;
61704;SDS011;47627;48.078;11.522;2023-04-25T19:38:46;7.03;;;4.53;;
61704;SDS011;47627;48.078;11.522;2023-04-25T19:41:12;4.97;;;4.18;;
61704;SDS011;47627;48.078;11.522;2023-04-25T19:43:37;4.97;;;4.47;;
61704;SDS011;47627;48.078;11.522;2023-04-25T19:46:02;6.65;;;4.15;;
61704;SDS011;47627;48.078;11.522;2023-04-25T19:48:27;5.40;;;4.68;;
61704;SDS011;47627;48.078;11.522;2023-04-25T19:50:53;7.40;;;5.07;;
61704;SDS011;47627;48.078;11.522;2023-04-25T19:53:18;6.68;;;5.28;;
61704;SDS011;47627;48.078;11.522;2023-04-25T19:55:43;7.30;;;5.30;;
61704;SDS011;47627;48.078;11.522;2023-04-25T19:58:08;6.18;;;5.35;;
61704;SDS011;47627;48.078;11.522;2023-04-25T20:00:33;6.95;;;4.65;;
61704;SDS011;47627;48.078;11.522;2023-04-25T20:02:59;7.95;;;4.75;;
61704;SDS011;47627;48.078;11.522;2023-04-25T20:05:26;7.45;;;5.05;;
61704;SDS011;47627;48.078;11.522;2023-04-25T20:07:51;5.85;;;5.03;;
61704;SDS011;47627;48.078;11.522;2023-04-25T20:10:17;7.72;;;5.88;;
61704;SDS011;47627;48.078;11.522;2023-04-25T20:12:43;6.05;;;5.40;;
61704;SDS011;47627;48.078;11.522;2023-04-25T20:15:09;7.47;;;5.28;;
61704;SDS011;47627;48.078;11.522;2023-04-25T20:17:35;6.60;;;5.90;;
61704;SDS011;47627;48.078;11.522;2023-04-25T20:20:00;6.03;;;5.35;;
61704;SDS011;47627;48.078;11.522;2023-04-25T20:22:27;6.53;;;5.65;;
61704;SDS011;47627;48.078;11.522;2023-04-25T20:24:59;6.43;;;5.53;;
61704;SDS011;47627;48.078;11.522;2023-04-25T20:27:25;7.30;;;4.93;;
61704;SDS011;47627;48.078;11.522;2023-04-25T20:29:50;7.13;;;5.97;;
61704;SDS011;47627;48.078;11.522;2023-04-25T20:32:15;7.68;;;5.80;;
61704;SDS011;47627;48.078;11.522;2023-04-25T20:34:41;6.95;;;5.65;;
61704;SDS011;47627;48.078;11.522;2023-04-25T20:37:06;7.47;;;4.90;;
61704;SDS011;47627;48.078;11.522;2023-04-25T20:39:32;8.48;;;5.13;;
61704;SDS011;47627;48.078;11.522;2023-04-25T20:41:59;6.35;;;5.28;;
61704;SDS011;47627;48.078;11.522;2023-04-25T20:44:24;5.53;;;4.93;;
61704;SDS011;47627;48.078;11.522;2023-04-25T20:46:49;5.85;;;5.25;;
61704;SDS011;47627;48.078;11.522;2023-04-25T20:49:15;6.13;;;5.45;;
61704;SDS011;47627;48.078;11.522;2023-04-25T20:51:40;7.32;;;5.32;;
61704;SDS011;47627;48.078;11.522;2023-04-25T20:54:06;7.00;;;5.35;;
61704;SDS011;47627;48.078;11.522;2023-04-25T20:56:31;9.05;;;5.40;;
61704;SDS011;47627;48.078;11.522;2023-04-25T20:58:56;8.65;;;5.38;;
61704;SDS011;47627;48.078;11.522;2023-04-25T21:01:22;8.38;;;5.30;;
61704;SDS011;47627;48.078;11.522;2023-04-25T21:03:48;6.40;;;5.35;;
61704;SDS011;47627;48.078;11.522;2023-04-25T21:06:14;5.55;;;4.95;;
61704;SDS011;47627;48.078;11.522;2023-04-25T21:08:39;6.45;;;5.68;;
61704;SDS011;47627;48.078;11.522;2023-04-25T21:11:05;6.57;;;5.65;;
